sensor_id;sensor_type;location;lat;lon;timestamp;P1;durP1;ratioP1;P2;durP2;ratioP2
66212;SDS011;53015;50.046;8.238;2022-07-23T00:02:19;6.65;;;3.75;;
66212;SDS011;53015;50.046;8.238;2022-07-23T00:04:45;5.32;;;3.78;;
66212;SDS011;53015;50.046;8.238;2022-07-23T00:07:10;5.68;;;4.20;;
66212;SDS011;53015;50.046;8.238;2022-07-23T00:09:36;7.03;;;4.07;;
66212;SDS011;53015;50.046;8.238;2022-07-23T00:12:01;4.75;;;4.15;;
66212;SDS011;53015;50.046;8.238;2022-07-23T00:14:26;4.47;;;4.00;;
66212;SDS011;53015;50.046;8.238;2022-07-23T00:16:52;6.03;;;3.95;;
66212;SDS011;53015;50.046;8.238;2022-07-23T00:19:17;5.68;;;3.70;;
66212;SDS011;53015;50.046;8.238;2022-07-23T00:21:43;7.13;;;3.92;;
66212;SDS011;53015;50.046;8.238;2022-07-23T00:24:08;4.60;;;3.67;;
66212;SDS011;53015;50.046;8.238;2022-07-23T00:26:34;6.78;;;4.10;;
66212;SDS011;53015;50.046;8.238;2022-07-23T00:28:59;4.93;;;4.03;;
66212;SDS011;53015;50.046;8.238;2022-07-23T00:31:25;5.45;;;4.07;;
66212;SDS011;53015;50.046;8.238;2022-07-23T00:33:50;6.80;;;3.97;;
66212;SDS011;53015;50.046;8.238;2022-07-23T00:36:15;7.70;;;3.97;;
66212;SDS011;53015;50.046;8.238;2022-07-23T00:38:41;5.80;;;4.10;;
66212;SDS011;53015;50.046;8.238;2022-07-23T00:41:07;6.68;;;4.65;;
66212;SDS011;53015;50.046;8.238;2022-07-23T00:43:32;5.32;;;3.97;;
66212;SDS011;53015;50.046;8.238;2022-07-23T00:45:58;5.38;;;4.15;;
66212;SDS011;53015;50.046;8.238;2022-07-23T00:48:23;4.97;;;3.95;;
66212;SDS011;53015;50.046;8.238;2022-07-23T00:50:49;7.50;;;4.22;;
66212;SDS011;53015;50.046;8.238;2022-07-23T00:53:14;4.63;;;3.97;;
66212;SDS011;53015;50.046;8.238;2022-07-23T00:55:40;7.05;;;4.15;;
66212;SDS011;53015;50.046;8.238;2022-07-23T00:58:06;7.35;;;4.28;;
66212;SDS011;53015;50.046;8.238;2022-07-23T01:00:32;8.23;;;4.05;;
66212;SDS011;53015;50.046;8.238;2022-07-23T01:02:57;5.70;;;4.32;;
66212;SDS011;53015;50.046;8.238;2022-07-23T01:05:23;8.00;;;3.97;;
66212;SDS011;53015;50.046;8.238;2022-07-23T01:07:49;6.50;;;4.20;;
66212;SDS011;53015;50.046;8.238;2022-07-23T01:10:15;6.28;;;3.90;;
66212;SDS011;53015;50.046;8.238;2022-07-23T01:12:56;5.63;;;3.97;;
66212;SDS011;53015;50.046;8.238;2022-07-23T01:15:21;7.35;;;3.95;;
66212;SDS011;53015;50.046;8.238;2022-07-23T01:17:47;6.03;;;3.90;;
66212;SDS011;53015;50.046;8.238;2022-07-23T01:20:14;6.55;;;4.60;;
66212;SDS011;53015;50.046;8.238;2022-07-23T01:22:39;7.70;;;4.57;;
66212;SDS011;53015;50.046;8.238;2022-07-23T01:25:05;6.82;;;4.20;;
66212;SDS011;53015;50.046;8.238;2022-07-23T01:27:31;7.85;;;4.78;;
66212;SDS011;53015;50.046;8.238;2022-07-23T01:29:57;8.20;;;5.25;;
66212;SDS011;53015;50.046;8.238;2022-07-23T01:32:22;7.55;;;4.72;;
66212;SDS011;53015;50.046;8.238;2022-07-23T01:34:47;7.85;;;5.00;;
66212;SDS011;53015;50.046;8.238;2022-07-23T01:37:13;5.55;;;4.68;;
66212;SDS011;53015;50.046;8.238;2022-07-23T01:39:38;9.95;;;4.85;;
66212;SDS011;53015;50.046;8.238;2022-07-23T01:42:04;5.90;;;4.68;;
66212;SDS011;53015;50.046;8.238;2022-07-23T01:44:30;5.00;;;4.35;;
66212;SDS011;53015;50.046;8.238;2022-07-23T01:46:55;6.53;;;4.80;;
66212;SDS011;53015;50.046;8.238;2022-07-23T01:49:21;7.70;;;4.95;;
66212;SDS011;53015;50.046;8.238;2022-07-23T01:51:46;7.70;;;4.80;;
66212;SDS011;53015;50.046;8.238;2022-07-23T01:54:30;6.03;;;5.13;;
66212;SDS011;53015;50.046;8.238;2022-07-23T01:56:57;6.22;;;4.75;;
66212;SDS011;53015;50.046;8.238;2022-07-23T01:59:23;6.40;;;4.88;;
66212;SDS011;53015;50.046;8.238;2022-07-23T02:01:49;8.93;;;4.88;;
66212;SDS011;53015;50.046;8.238;2022-07-23T02:04:18;8.20;;;4.75;;
66212;SDS011;53015;50.046;8.238;2022-07-23T02:06:44;9.57;;;5.13;;
66212;SDS011;53015;50.046;8.238;2022-07-23T02:09:09;8.45;;;5.15;;
66212;SDS011;53015;50.046;8.238;2022-07-23T02:11:35;6.70;;;5.10;;
66212;SDS011;53015;50.046;8.238;2022-07-23T02:14:01;8.25;;;4.88;;
66212;SDS011;53015;50.046;8.238;2022-07-23T02:16:26;5.95;;;5.00;;
66212;SDS011;53015;50.046;8.238;2022-07-23T02:18:52;6.50;;;4.78;;
66212;SDS011;53015;50.046;8.238;2022-07-23T02:21:17;9.45;;;4.80;;
66212;SDS011;53015;50.046;8.238;2022-07-23T02:23:42;7.70;;;4.95;;
66212;SDS011;53015;50.046;8.238;2022-07-23T02:26:08;9.13;;;5.00;;
66212;SDS011;53015;50.046;8.238;2022-07-23T02:28:33;5.68;;;4.85;;
66212;SDS011;53015;50.046;8.238;2022-07-23T02:30:58;6.72;;;4.70;;
66212;SDS011;53015;50.046;8.238;2022-07-23T02:33:24;8.50;;;5.25;;
66212;SDS011;53015;50.046;8.238;2022-07-23T02:35:49;7.97;;;5.47;;
66212;SDS011;53015;50.046;8.238;2022-07-23T02:38:15;7.63;;;5.40;;
66212;SDS011;53015;50.046;8.238;2022-07-23T02:40:40;7.57;;;5.68;;
66212;SDS011;53015;50.046;8.238;2022-07-23T02:43:05;6.40;;;5.28;;
66212;SDS011;53015;50.046;8.238;2022-07-23T02:45:31;6.78;;;5.15;;
66212;SDS011;53015;50.046;8.238;2022-07-23T02:47:56;7.18;;;5.60;;
66212;SDS011;53015;50.046;8.238;2022-07-23T02:50:22;6.47;;;5.15;;
66212;SDS011;53015;50.046;8.238;2022-07-23T02:52:47;6.65;;;5.20;;
66212;SDS011;53015;50.046;8.238;2022-07-23T02:55:13;5.30;;;4.80;;
66212;SDS011;53015;50.046;8.238;2022-07-23T02:57:38;6.75;;;5.53;;
66212;SDS011;53015;50.046;8.238;2022-07-23T03:00:04;7.63;;;5.55;;
66212;SDS011;53015;50.046;8.238;2022-07-23T03:02:31;8.57;;;5.57;;
66212;SDS011;53015;50.046;8.238;2022-07-23T03:04:56;7.88;;;5.05;;
66212;SDS011;53015;50.046;8.238;2022-07-23T03:07:22;8.75;;;5.63;;
66212;SDS011;53015;50.046;8.238;2022-07-23T03:09:47;6.97;;;5.30;;
66212;SDS011;53015;50.046;8.238;2022-07-23T03:12:12;7.22;;;5.18;;
66212;SDS011;53015;50.046;8.238;2022-07-23T03:14:38;8.13;;;5.28;;
66212;SDS011;53015;50.046;8.238;2022-07-23T03:17:03;7.95;;;5.22;;
66212;SDS011;53015;50.046;8.238;2022-07-23T03:19:29;6.35;;;5.07;;
66212;SDS011;53015;50.046;8.238;2022-07-23T03:21:54;7.32;;;5.25;;
66212;SDS011;53015;50.046;8.238;2022-07-23T03:24:20;6.22;;;4.90;;
66212;SDS011;53015;50.046;8.238;2022-07-23T03:26:45;9.20;;;5.18;;
66212;SDS011;53015;50.046;8.238;2022-07-23T03:29:11;6.80;;;5.07;;
66212;SDS011;53015;50.046;8.238;2022-07-23T03:31:36;9.27;;;5.30;;
66212;SDS011;53015;50.046;8.238;2022-07-23T03:34:02;6.43;;;4.70;;
66212;SDS011;53015;50.046;8.238;2022-07-23T03:36:27;5.85;;;4.70;;
66212;SDS011;53015;50.046;8.238;2022-07-23T03:38:53;5.43;;;4.70;;
66212;SDS011;53015;50.046;8.238;2022-07-23T03:41:19;6.75;;;4.45;;
66212;SDS011;53015;50.046;8.238;2022-07-23T03:43:45;8.57;;;4.93;;
66212;SDS011;53015;50.046;8.238;2022-07-23T03:46:11;6.93;;;4.95;;
66212;SDS011;53015;50.046;8.238;2022-07-23T03:48:37;6.68;;;4.85;;
66212;SDS011;53015;50.046;8.238;2022-07-23T03:51:03;7.60;;;5.00;;
66212;SDS011;53015;50.046;8.238;2022-07-23T03:53:28;6.55;;;5.00;;
66212;SDS011;53015;50.046;8.238;2022-07-23T03:55:54;6.95;;;5.30;;
66212;SDS011;53015;50.046;8.238;2022-07-23T03:58:19;5.22;;;4.72;;
66212;SDS011;53015;50.046;8.238;2022-07-23T04:00:45;5.60;;;5.00;;
66212;SDS011;53015;50.046;8.238;2022-07-23T04:03:10;11.95;;;5.45;;
66212;SDS011;53015;50.046;8.238;2022-07-23T04:05:35;8.18;;;5.53;;
66212;SDS011;53015;50.046;8.238;2022-07-23T04:08:01;6.85;;;5.60;;
66212;SDS011;53015;50.046;8.238;2022-07-23T04:10:27;8.70;;;5.72;;
66212;SDS011;53015;50.046;8.238;2022-07-23T04:12:52;7.53;;;5.95;;
66212;SDS011;53015;50.046;8.238;2022-07-23T04:15:17;7.20;;;5.70;;
66212;SDS011;53015;50.046;8.238;2022-07-23T04:17:43;5.70;;;5.13;;
66212;SDS011;53015;50.046;8.238;2022-07-23T04:20:10;6.80;;;5.20;;
66212;SDS011;53015;50.046;8.238;2022-07-23T04:22:36;6.70;;;5.68;;
66212;SDS011;53015;50.046;8.238;2022-07-23T04:25:01;8.70;;;6.20;;
66212;SDS011;53015;50.046;8.238;2022-07-23T04:27:27;8.68;;;6.40;;
66212;SDS011;53015;50.046;8.238;2022-07-23T04:29:52;7.90;;;6.13;;
66212;SDS011;53015;50.046;8.238;2022-07-23T04:32:18;7.80;;;5.78;;
66212;SDS011;53015;50.046;8.238;2022-07-23T04:34:43;8.82;;;6.15;;
66212;SDS011;53015;50.046;8.238;2022-07-23T04:37:09;8.20;;;6.38;;
66212;SDS011;53015;50.046;8.238;2022-07-23T04:39:34;8.88;;;6.32;;
66212;SDS011;53015;50.046;8.238;2022-07-23T04:42:00;8.40;;;5.88;;
66212;SDS011;53015;50.046;8.238;2022-07-23T04:44:25;7.35;;;5.80;;
66212;SDS011;53015;50.046;8.238;2022-07-23T04:46:50;8.95;;;5.88;;
66212;SDS011;53015;50.046;8.238;2022-07-23T04:49:16;6.60;;;5.85;;
66212;SDS011;53015;50.046;8.238;2022-07-23T04:51:41;8.55;;;5.97;;
66212;SDS011;53015;50.046;8.238;2022-07-23T04:54:07;9.48;;;5.93;;
66212;SDS011;53015;50.046;8.238;2022-07-23T04:56:32;7.07;;;6.22;;
66212;SDS011;53015;50.046;8.238;2022-07-23T04:58:57;6.53;;;5.85;;
66212;SDS011;53015;50.046;8.238;2022-07-23T05:01:23;7.68;;;6.40;;
66212;SDS011;53015;50.046;8.238;2022-07-23T05:03:48;7.68;;;6.30;;
66212;SDS011;53015;50.046;8.238;2022-07-23T05:06:14;6.95;;;6.03;;
66212;SDS011;53015;50.046;8.238;2022-07-23T05:08:40;9.75;;;6.85;;
66212;SDS011;53015;50.046;8.238;2022-07-23T05:11:05;8.32;;;5.95;;
66212;SDS011;53015;50.046;8.238;2022-07-23T05:13:30;8.13;;;6.28;;
66212;SDS011;53015;50.046;8.238;2022-07-23T05:15:56;7.38;;;6.30;;
66212;SDS011;53015;50.046;8.238;2022-07-23T05:18:21;7.10;;;6.28;;
66212;SDS011;53015;50.046;8.238;2022-07-23T05:20:47;8.50;;;6.32;;
66212;SDS011;53015;50.046;8.238;2022-07-23T05:23:12;8.77;;;6.68;;
66212;SDS011;53015;50.046;8.238;2022-07-23T05:25:37;11.82;;;7.20;;
66212;SDS011;53015;50.046;8.238;2022-07-23T05:28:03;9.40;;;6.32;;
66212;SDS011;53015;50.046;8.238;2022-07-23T05:30:28;8.43;;;6.28;;
66212;SDS011;53015;50.046;8.238;2022-07-23T05:32:54;7.30;;;6.60;;
66212;SDS011;53015;50.046;8.238;2022-07-23T05:35:19;11.40;;;6.22;;
66212;SDS011;53015;50.046;8.238;2022-07-23T05:37:45;8.27;;;6.47;;
66212;SDS011;53015;50.046;8.238;2022-07-23T05:40:10;9.18;;;6.43;;
66212;SDS011;53015;50.046;8.238;2022-07-23T05:42:37;12.68;;;7.10;;
66212;SDS011;53015;50.046;8.238;2022-07-23T05:45:04;8.48;;;6.25;;
66212;SDS011;53015;50.046;8.238;2022-07-23T05:50:25;8.02;;;6.82;;
66212;SDS011;53015;50.046;8.238;2022-07-23T05:52:50;8.43;;;6.43;;
66212;SDS011;53015;50.046;8.238;2022-07-23T05:55:16;6.93;;;6.20;;
66212;SDS011;53015;50.046;8.238;2022-07-23T05:57:41;9.23;;;6.40;;
66212;SDS011;53015;50.046;8.238;2022-07-23T06:00:07;8.57;;;6.72;;
66212;SDS011;53015;50.046;8.238;2022-07-23T06:02:34;8.05;;;6.13;;
66212;SDS011;53015;50.046;8.238;2022-07-23T06:04:59;10.10;;;6.47;;
66212;SDS011;53015;50.046;8.238;2022-07-23T06:07:25;7.80;;;5.72;;
66212;SDS011;53015;50.046;8.238;2022-07-23T06:09:50;8.05;;;6.25;;
66212;SDS011;53015;50.046;8.238;2022-07-23T06:12:16;7.30;;;6.10;;
66212;SDS011;53015;50.046;8.238;2022-07-23T06:14:41;6.95;;;5.72;;
66212;SDS011;53015;50.046;8.238;2022-07-23T06:17:07;5.93;;;5.30;;
66212;SDS011;53015;50.046;8.238;2022-07-23T06:19:33;8.10;;;5.43;;
66212;SDS011;53015;50.046;8.238;2022-07-23T06:21:59;8.00;;;5.47;;
66212;SDS011;53015;50.046;8.238;2022-07-23T06:24:24;7.63;;;5.50;;
66212;SDS011;53015;50.046;8.238;2022-07-23T06:26:50;6.88;;;5.60;;
66212;SDS011;53015;50.046;8.238;2022-07-23T06:29:15;8.20;;;5.28;;
66212;SDS011;53015;50.046;8.238;2022-07-23T06:31:40;8.80;;;5.35;;
66212;SDS011;53015;50.046;8.238;2022-07-23T06:34:06;7.22;;;5.22;;
66212;SDS011;53015;50.046;8.238;2022-07-23T06:36:31;6.05;;;5.25;;
66212;SDS011;53015;50.046;8.238;2022-07-23T06:38:56;8.32;;;5.63;;
66212;SDS011;53015;50.046;8.238;2022-07-23T06:41:22;6.60;;;5.28;;
66212;SDS011;53015;50.046;8.238;2022-07-23T06:43:50;7.60;;;5.20;;
66212;SDS011;53015;50.046;8.238;2022-07-23T06:46:15;8.82;;;5.15;;
66212;SDS011;53015;50.046;8.238;2022-07-23T06:48:40;6.88;;;5.10;;
66212;SDS011;53015;50.046;8.238;2022-07-23T06:51:06;6.30;;;5.13;;
66212;SDS011;53015;50.046;8.238;2022-07-23T06:53:31;7.57;;;5.35;;
66212;SDS011;53015;50.046;8.238;2022-07-23T06:55:56;5.82;;;5.10;;
66212;SDS011;53015;50.046;8.238;2022-07-23T06:58:22;7.88;;;4.78;;
66212;SDS011;53015;50.046;8.238;2022-07-23T07:00:47;7.82;;;5.03;;
66212;SDS011;53015;50.046;8.238;2022-07-23T07:03:13;7.97;;;4.60;;
66212;SDS011;53015;50.046;8.238;2022-07-23T07:05:38;7.57;;;4.95;;
66212;SDS011;53015;50.046;8.238;2022-07-23T07:08:05;9.27;;;5.25;;
66212;SDS011;53015;50.046;8.238;2022-07-23T07:10:31;5.47;;;4.88;;
66212;SDS011;53015;50.046;8.238;2022-07-23T07:12:57;5.63;;;5.05;;
66212;SDS011;53015;50.046;8.238;2022-07-23T07:15:22;6.20;;;4.93;;
66212;SDS011;53015;50.046;8.238;2022-07-23T07:17:47;7.85;;;4.90;;
66212;SDS011;53015;50.046;8.238;2022-07-23T07:20:13;5.55;;;4.97;;
66212;SDS011;53015;50.046;8.238;2022-07-23T07:22:38;6.22;;;4.60;;
66212;SDS011;53015;50.046;8.238;2022-07-23T07:25:05;7.05;;;4.47;;
66212;SDS011;53015;50.046;8.238;2022-07-23T07:27:31;5.10;;;4.22;;
66212;SDS011;53015;50.046;8.238;2022-07-23T07:29:56;4.60;;;4.20;;
66212;SDS011;53015;50.046;8.238;2022-07-23T07:32:21;4.57;;;4.10;;
66212;SDS011;53015;50.046;8.238;2022-07-23T07:34:47;5.60;;;3.72;;
66212;SDS011;53015;50.046;8.238;2022-07-23T07:37:12;6.22;;;3.90;;
66212;SDS011;53015;50.046;8.238;2022-07-23T07:39:38;11.85;;;4.18;;
66212;SDS011;53015;50.046;8.238;2022-07-23T07:42:03;4.35;;;3.95;;
66212;SDS011;53015;50.046;8.238;2022-07-23T07:44:29;4.72;;;4.25;;
66212;SDS011;53015;50.046;8.238;2022-07-23T07:46:54;4.57;;;4.13;;
66212;SDS011;53015;50.046;8.238;2022-07-23T07:49:20;7.20;;;4.32;;
66212;SDS011;53015;50.046;8.238;2022-07-23T07:51:45;5.57;;;4.10;;
66212;SDS011;53015;50.046;8.238;2022-07-23T07:54:11;5.47;;;4.30;;
66212;SDS011;53015;50.046;8.238;2022-07-23T07:56:37;4.80;;;4.13;;
66212;SDS011;53015;50.046;8.238;2022-07-23T07:59:02;5.93;;;4.50;;
66212;SDS011;53015;50.046;8.238;2022-07-23T08:01:28;6.55;;;4.70;;
66212;SDS011;53015;50.046;8.238;2022-07-23T08:03:53;7.63;;;4.70;;
66212;SDS011;53015;50.046;8.238;2022-07-23T08:06:18;5.90;;;4.22;;
66212;SDS011;53015;50.046;8.238;2022-07-23T08:08:44;5.47;;;4.20;;
66212;SDS011;53015;50.046;8.238;2022-07-23T08:11:09;6.32;;;4.40;;
66212;SDS011;53015;50.046;8.238;2022-07-23T08:13:34;5.78;;;4.38;;
66212;SDS011;53015;50.046;8.238;2022-07-23T08:16:00;7.47;;;4.80;;
66212;SDS011;53015;50.046;8.238;2022-07-23T08:18:26;8.20;;;4.38;;
66212;SDS011;53015;50.046;8.238;2022-07-23T08:20:51;8.32;;;4.05;;
66212;SDS011;53015;50.046;8.238;2022-07-23T08:23:16;7.38;;;4.68;;
66212;SDS011;53015;50.046;8.238;2022-07-23T08:25:44;4.78;;;4.10;;
66212;SDS011;53015;50.046;8.238;2022-07-23T08:28:11;4.50;;;4.10;;
66212;SDS011;53015;50.046;8.238;2022-07-23T08:30:38;5.60;;;4.00;;
66212;SDS011;53015;50.046;8.238;2022-07-23T08:33:05;6.05;;;3.50;;
66212;SDS011;53015;50.046;8.238;2022-07-23T08:35:36;5.15;;;4.28;;
66212;SDS011;53015;50.046;8.238;2022-07-23T08:38:04;6.47;;;4.25;;
66212;SDS011;53015;50.046;8.238;2022-07-23T08:40:32;4.82;;;4.30;;
66212;SDS011;53015;50.046;8.238;2022-07-23T08:42:59;7.40;;;4.03;;
66212;SDS011;53015;50.046;8.238;2022-07-23T08:45:27;5.93;;;4.20;;
66212;SDS011;53015;50.046;8.238;2022-07-23T08:47:53;5.55;;;4.20;;
66212;SDS011;53015;50.046;8.238;2022-07-23T08:50:22;4.82;;;3.90;;
66212;SDS011;53015;50.046;8.238;2022-07-23T08:52:49;4.88;;;3.83;;
66212;SDS011;53015;50.046;8.238;2022-07-23T08:55:19;4.15;;;3.70;;
66212;SDS011;53015;50.046;8.238;2022-07-23T08:57:49;4.57;;;3.72;;
66212;SDS011;53015;50.046;8.238;2022-07-23T09:00:17;4.18;;;3.55;;
66212;SDS011;53015;50.046;8.238;2022-07-23T09:02:44;4.07;;;3.30;;
66212;SDS011;53015;50.046;8.238;2022-07-23T09:05:11;6.07;;;3.10;;
66212;SDS011;53015;50.046;8.238;2022-07-23T09:07:38;4.75;;;3.47;;
66212;SDS011;53015;50.046;8.238;2022-07-23T09:10:28;3.38;;;3.08;;
66212;SDS011;53015;50.046;8.238;2022-07-23T09:12:54;4.32;;;3.00;;
66212;SDS011;53015;50.046;8.238;2022-07-23T09:15:19;5.55;;;3.55;;
66212;SDS011;53015;50.046;8.238;2022-07-23T09:17:45;3.13;;;2.83;;
66212;SDS011;53015;50.046;8.238;2022-07-23T09:20:12;3.42;;;3.13;;
66212;SDS011;53015;50.046;8.238;2022-07-23T09:22:40;4.55;;;3.28;;
66212;SDS011;53015;50.046;8.238;2022-07-23T09:25:18;3.80;;;3.13;;
66212;SDS011;53015;50.046;8.238;2022-07-23T09:27:45;5.43;;;3.20;;
66212;SDS011;53015;50.046;8.238;2022-07-23T09:30:24;3.95;;;3.20;;
66212;SDS011;53015;50.046;8.238;2022-07-23T09:33:11;3.88;;;2.97;;
66212;SDS011;53015;50.046;8.238;2022-07-23T09:35:54;4.20;;;3.72;;
66212;SDS011;53015;50.046;8.238;2022-07-23T09:38:22;4.27;;;2.90;;
66212;SDS011;53015;50.046;8.238;2022-07-23T09:43:36;4.53;;;3.05;;
66212;SDS011;53015;50.046;8.238;2022-07-23T09:48:47;5.43;;;3.05;;
66212;SDS011;53015;50.046;8.238;2022-07-23T09:51:12;3.30;;;2.67;;
66212;SDS011;53015;50.046;8.238;2022-07-23T09:54:00;6.43;;;3.45;;
66212;SDS011;53015;50.046;8.238;2022-07-23T09:56:26;6.53;;;3.03;;
66212;SDS011;53015;50.046;8.238;2022-07-23T09:58:52;5.72;;;3.80;;
66212;SDS011;53015;50.046;8.238;2022-07-23T10:01:37;5.40;;;3.90;;
66212;SDS011;53015;50.046;8.238;2022-07-23T10:04:04;4.88;;;4.00;;
66212;SDS011;53015;50.046;8.238;2022-07-23T10:06:30;5.25;;;4.18;;
66212;SDS011;53015;50.046;8.238;2022-07-23T10:08:56;4.97;;;4.10;;
66212;SDS011;53015;50.046;8.238;2022-07-23T10:11:24;7.63;;;4.15;;
66212;SDS011;53015;50.046;8.238;2022-07-23T10:13:53;7.60;;;4.28;;
66212;SDS011;53015;50.046;8.238;2022-07-23T10:16:24;4.20;;;3.80;;
66212;SDS011;53015;50.046;8.238;2022-07-23T10:18:50;4.65;;;4.20;;
66212;SDS011;53015;50.046;8.238;2022-07-23T10:21:18;4.32;;;3.85;;
66212;SDS011;53015;50.046;8.238;2022-07-23T10:23:58;5.78;;;3.65;;
66212;SDS011;53015;50.046;8.238;2022-07-23T10:26:40;4.75;;;4.18;;
66212;SDS011;53015;50.046;8.238;2022-07-23T10:32:08;4.13;;;3.72;;
66212;SDS011;53015;50.046;8.238;2022-07-23T10:37:26;4.93;;;3.88;;
66212;SDS011;53015;50.046;8.238;2022-07-23T10:42:36;5.03;;;3.78;;
66212;SDS011;53015;50.046;8.238;2022-07-23T10:45:21;5.47;;;3.72;;
66212;SDS011;53015;50.046;8.238;2022-07-23T10:47:54;4.15;;;3.67;;
66212;SDS011;53015;50.046;8.238;2022-07-23T10:50:21;3.58;;;3.28;;
66212;SDS011;53015;50.046;8.238;2022-07-23T10:53:07;5.95;;;3.42;;
66212;SDS011;53015;50.046;8.238;2022-07-23T10:58:03;5.75;;;3.40;;
66212;SDS011;53015;50.046;8.238;2022-07-23T11:00:30;6.15;;;3.80;;
66212;SDS011;53015;50.046;8.238;2022-07-23T11:02:58;5.30;;;3.92;;
66212;SDS011;53015;50.046;8.238;2022-07-23T11:05:46;4.68;;;3.67;;
66212;SDS011;53015;50.046;8.238;2022-07-23T11:08:15;5.95;;;3.53;;
66212;SDS011;53015;50.046;8.238;2022-07-23T11:16:08;4.68;;;3.60;;
66212;SDS011;53015;50.046;8.238;2022-07-23T11:34:34;4.03;;;3.42;;
66212;SDS011;53015;50.046;8.238;2022-07-23T11:37:03;3.50;;;3.20;;
66212;SDS011;53015;50.046;8.238;2022-07-23T11:39:31;4.18;;;3.33;;
66212;SDS011;53015;50.046;8.238;2022-07-23T11:41:57;3.97;;;3.58;;
66212;SDS011;53015;50.046;8.238;2022-07-23T11:44:27;4.43;;;3.22;;
66212;SDS011;53015;50.046;8.238;2022-07-23T11:47:05;4.80;;;3.70;;
66212;SDS011;53015;50.046;8.238;2022-07-23T11:49:31;5.65;;;3.20;;
66212;SDS011;53015;50.046;8.238;2022-07-23T11:54:34;4.50;;;3.22;;
66212;SDS011;53015;50.046;8.238;2022-07-23T11:57:01;4.38;;;3.38;;
66212;SDS011;53015;50.046;8.238;2022-07-23T11:59:31;3.75;;;3.30;;
66212;SDS011;53015;50.046;8.238;2022-07-23T12:09:53;3.83;;;3.40;;
66212;SDS011;53015;50.046;8.238;2022-07-23T12:12:19;4.40;;;3.17;;
66212;SDS011;53015;50.046;8.238;2022-07-23T12:14:57;4.97;;;3.30;;
66212;SDS011;53015;50.046;8.238;2022-07-23T12:17:28;5.88;;;3.40;;
66212;SDS011;53015;50.046;8.238;2022-07-23T12:19:55;5.03;;;3.80;;
66212;SDS011;53015;50.046;8.238;2022-07-23T12:22:22;4.50;;;3.67;;
66212;SDS011;53015;50.046;8.238;2022-07-23T12:25:08;3.03;;;2.78;;
66212;SDS011;53015;50.046;8.238;2022-07-23T12:27:37;6.10;;;3.40;;
66212;SDS011;53015;50.046;8.238;2022-07-23T12:30:16;6.70;;;3.42;;
66212;SDS011;53015;50.046;8.238;2022-07-23T12:32:44;3.83;;;3.40;;
66212;SDS011;53015;50.046;8.238;2022-07-23T12:35:11;8.02;;;3.40;;
66212;SDS011;53015;50.046;8.238;2022-07-23T12:37:40;8.13;;;3.60;;
66212;SDS011;53015;50.046;8.238;2022-07-23T12:42:47;4.15;;;3.65;;
66212;SDS011;53015;50.046;8.238;2022-07-23T12:45:14;4.15;;;3.63;;
66212;SDS011;53015;50.046;8.238;2022-07-23T12:50:38;4.00;;;3.40;;
66212;SDS011;53015;50.046;8.238;2022-07-23T12:53:05;4.30;;;3.90;;
66212;SDS011;53015;50.046;8.238;2022-07-23T12:55:36;3.85;;;3.42;;
66212;SDS011;53015;50.046;8.238;2022-07-23T12:58:07;4.63;;;3.20;;
66212;SDS011;53015;50.046;8.238;2022-07-23T13:00:56;5.75;;;3.63;;
66212;SDS011;53015;50.046;8.238;2022-07-23T13:03:24;4.05;;;3.58;;
66212;SDS011;53015;50.046;8.238;2022-07-23T13:05:50;4.18;;;3.50;;
66212;SDS011;53015;50.046;8.238;2022-07-23T13:08:16;4.00;;;3.50;;
66212;SDS011;53015;50.046;8.238;2022-07-23T13:10:41;4.32;;;3.33;;
66212;SDS011;53015;50.046;8.238;2022-07-23T13:13:10;3.95;;;3.53;;
66212;SDS011;53015;50.046;8.238;2022-07-23T13:15:35;6.20;;;3.55;;
66212;SDS011;53015;50.046;8.238;2022-07-23T13:18:01;5.20;;;3.67;;
66212;SDS011;53015;50.046;8.238;2022-07-23T13:20:26;6.18;;;3.47;;
66212;SDS011;53015;50.046;8.238;2022-07-23T13:22:52;5.68;;;3.70;;
66212;SDS011;53015;50.046;8.238;2022-07-23T13:25:17;5.57;;;3.58;;
66212;SDS011;53015;50.046;8.238;2022-07-23T13:27:42;4.65;;;4.05;;
66212;SDS011;53015;50.046;8.238;2022-07-23T13:30:08;4.72;;;3.80;;
66212;SDS011;53015;50.046;8.238;2022-07-23T13:32:35;8.10;;;3.67;;
66212;SDS011;53015;50.046;8.238;2022-07-23T13:35:01;4.38;;;3.92;;
66212;SDS011;53015;50.046;8.238;2022-07-23T13:37:27;4.47;;;3.67;;
66212;SDS011;53015;50.046;8.238;2022-07-23T13:39:52;5.85;;;3.70;;
66212;SDS011;53015;50.046;8.238;2022-07-23T13:42:18;5.38;;;3.72;;
66212;SDS011;53015;50.046;8.238;2022-07-23T13:44:43;7.35;;;3.75;;
66212;SDS011;53015;50.046;8.238;2022-07-23T13:47:08;5.20;;;3.60;;
66212;SDS011;53015;50.046;8.238;2022-07-23T13:49:34;4.28;;;3.88;;
66212;SDS011;53015;50.046;8.238;2022-07-23T13:51:59;4.35;;;3.47;;
66212;SDS011;53015;50.046;8.238;2022-07-23T13:54:24;4.05;;;3.60;;
66212;SDS011;53015;50.046;8.238;2022-07-23T13:56:50;4.47;;;3.78;;
66212;SDS011;53015;50.046;8.238;2022-07-23T13:59:16;6.03;;;3.53;;
66212;SDS011;53015;50.046;8.238;2022-07-23T14:01:42;4.13;;;3.40;;
66212;SDS011;53015;50.046;8.238;2022-07-23T14:04:09;4.95;;;3.80;;
66212;SDS011;53015;50.046;8.238;2022-07-23T14:06:34;3.70;;;3.40;;
66212;SDS011;53015;50.046;8.238;2022-07-23T14:08:59;5.32;;;3.28;;
66212;SDS011;53015;50.046;8.238;2022-07-23T14:11:25;4.43;;;3.70;;
66212;SDS011;53015;50.046;8.238;2022-07-23T14:13:50;7.43;;;3.65;;
66212;SDS011;53015;50.046;8.238;2022-07-23T14:16:16;5.05;;;3.28;;
66212;SDS011;53015;50.046;8.238;2022-07-23T14:18:42;5.90;;;3.90;;
66212;SDS011;53015;50.046;8.238;2022-07-23T14:21:07;3.72;;;3.42;;
66212;SDS011;53015;50.046;8.238;2022-07-23T14:23:32;3.60;;;3.30;;
66212;SDS011;53015;50.046;8.238;2022-07-23T14:25:58;4.10;;;3.55;;
66212;SDS011;53015;50.046;8.238;2022-07-23T14:28:24;5.95;;;3.90;;
66212;SDS011;53015;50.046;8.238;2022-07-23T14:30:49;4.65;;;3.13;;
66212;SDS011;53015;50.046;8.238;2022-07-23T14:33:15;3.60;;;3.30;;
66212;SDS011;53015;50.046;8.238;2022-07-23T14:35:41;18.75;;;4.00;;
66212;SDS011;53015;50.046;8.238;2022-07-23T14:38:06;3.40;;;3.10;;
66212;SDS011;53015;50.046;8.238;2022-07-23T14:40:32;3.72;;;3.40;;
66212;SDS011;53015;50.046;8.238;2022-07-23T14:42:57;5.25;;;3.40;;
66212;SDS011;53015;50.046;8.238;2022-07-23T14:45:23;5.05;;;3.30;;
66212;SDS011;53015;50.046;8.238;2022-07-23T14:47:48;3.20;;;2.90;;
66212;SDS011;53015;50.046;8.238;2022-07-23T14:50:14;6.03;;;3.00;;
66212;SDS011;53015;50.046;8.238;2022-07-23T14:52:39;4.97;;;3.05;;
66212;SDS011;53015;50.046;8.238;2022-07-23T14:55:05;3.47;;;3.17;;
66212;SDS011;53015;50.046;8.238;2022-07-23T14:57:30;3.35;;;3.00;;
66212;SDS011;53015;50.046;8.238;2022-07-23T14:59:56;3.40;;;3.10;;
66212;SDS011;53015;50.046;8.238;2022-07-23T15:02:21;4.07;;;3.30;;
66212;SDS011;53015;50.046;8.238;2022-07-23T15:04:46;3.75;;;2.90;;
66212;SDS011;53015;50.046;8.238;2022-07-23T15:07:12;3.63;;;3.08;;
66212;SDS011;53015;50.046;8.238;2022-07-23T15:09:37;3.78;;;2.97;;
66212;SDS011;53015;50.046;8.238;2022-07-23T15:12:03;3.88;;;3.28;;
66212;SDS011;53015;50.046;8.238;2022-07-23T15:14:29;4.00;;;2.78;;
66212;SDS011;53015;50.046;8.238;2022-07-23T15:16:54;4.13;;;3.10;;
66212;SDS011;53015;50.046;8.238;2022-07-23T15:19:19;2.83;;;2.60;;
66212;SDS011;53015;50.046;8.238;2022-07-23T15:21:45;4.15;;;2.80;;
66212;SDS011;53015;50.046;8.238;2022-07-23T15:24:10;3.63;;;3.05;;
66212;SDS011;53015;50.046;8.238;2022-07-23T15:26:36;4.03;;;2.40;;
66212;SDS011;53015;50.046;8.238;2022-07-23T15:29:01;4.25;;;2.80;;
66212;SDS011;53015;50.046;8.238;2022-07-23T15:31:28;5.18;;;2.88;;
66212;SDS011;53015;50.046;8.238;2022-07-23T15:33:53;2.60;;;2.40;;
66212;SDS011;53015;50.046;8.238;2022-07-23T15:36:19;3.25;;;2.60;;
66212;SDS011;53015;50.046;8.238;2022-07-23T15:38:45;6.47;;;3.75;;
66212;SDS011;53015;50.046;8.238;2022-07-23T15:41:11;3.00;;;2.47;;
66212;SDS011;53015;50.046;8.238;2022-07-23T15:43:37;4.68;;;2.63;;